Time;durP1;ratioP1;P1;durP2;ratioP2;P2;SDS_P1;SDS_P2;PMS_P1;PMS_P2;Temp;Humidity;BMP_temperature;BMP_pressure;BME280_temperature;BME280_humidity;BME280_pressure;Samples;Min_cycle;Max_cycle;Signal;HPM_P1;HPM_P2
2022/01/01 00:01:34;;;;;;;160.30;97.05;;;10.50;99.90;;;;;;5025255;28;20053;-67
2022/01/01 00:04:00;;;;;;;165.13;101.20;;;10.40;99.90;;;;;;5025458;28;20045;-64
2022/01/01 00:06:25;;;;;;;143.45;89.20;;;10.40;99.90;;;;;;5029731;28;20056;-65
2022/01/01 00:08:52;;;;;;;216.20;142.70;;;10.40;99.90;;;;;;5028823;28;20041;-64
2022/01/01 00:11:18;;;;;;;231.43;147.25;;;10.40;99.90;;;;;;5044927;28;20482;-65
2022/01/01 00:13:44;;;;;;;244.13;158.45;;;10.40;99.90;;;;;;5011695;28;20050;-64
2022/01/01 00:16:10;;;;;;;178.88;119.45;;;10.40;99.90;;;;;;5028048;28;20426;-64
2022/01/01 00:18:36;;;;;;;160.80;95.90;;;10.40;99.90;;;;;;5028971;28;20107;-64
2022/01/01 00:21:04;;;;;;;129.75;86.72;;;10.40;99.90;;;;;;5027850;28;20131;-65
2022/01/01 00:23:29;;;;;;;133.82;78.95;;;10.40;99.90;;;;;;5028913;28;20103;-65
2022/01/01 00:25:55;;;;;;;110.72;68.00;;;10.40;99.90;;;;;;5028209;28;20104;-64
2022/01/01 00:28:21;;;;;;;100.38;59.20;;;10.40;99.90;;;;;;5033557;28;20045;-68
2022/01/01 00:30:47;;;;;;;94.07;56.03;;;10.40;99.90;;;;;;4995207;28;20052;-67
2022/01/01 00:33:12;;;;;;;145.18;86.70;;;10.40;99.90;;;;;;5011312;28;20049;-68
2022/01/01 00:35:40;;;;;;;101.20;60.22;;;10.40;99.90;;;;;;5028017;28;20061;-67
2022/01/01 00:38:06;;;;;;;104.43;62.47;;;10.40;99.90;;;;;;5010920;28;20054;-67
2022/01/01 00:40:32;;;;;;;93.93;51.20;;;10.40;99.90;;;;;;5028496;28;20057;-67
2022/01/01 00:43:00;;;;;;;100.32;55.35;;;10.40;99.90;;;;;;5027211;28;20171;-67
2022/01/01 00:45:25;;;;;;;80.93;46.30;;;10.40;99.90;;;;;;5016180;28;20053;-64
2022/01/01 00:47:51;;;;;;;80.72;43.83;;;10.40;99.90;;;;;;5031373;28;20056;-64
2022/01/01 00:50:17;;;;;;;80.20;45.25;;;10.40;99.90;;;;;;5033176;28;20395;-65
2022/01/01 00:52:44;;;;;;;77.80;47.25;;;10.40;99.90;;;;;;5032841;28;20038;-64
2022/01/01 00:55:11;;;;;;;88.32;49.80;;;10.40;99.90;;;;;;5033262;28;20053;-65
2022/01/01 00:57:37;;;;;;;85.97;52.78;;;10.30;99.90;;;;;;5032291;28;20064;-65
2022/01/01 01:00:04;;;;;;;83.35;44.20;;;10.40;99.90;;;;;;5031055;28;20055;-65
2022/01/01 01:02:31;;;;;;;81.55;47.42;;;10.30;99.90;;;;;;5031443;28;20107;-64
2022/01/01 01:04:57;;;;;;;78.63;44.17;;;10.30;99.90;;;;;;5031025;28;20115;-66
2022/01/01 01:07:23;;;;;;;76.03;44.10;;;10.30;99.90;;;;;;5032766;28;20045;-64
2022/01/01 01:09:49;;;;;;;72.18;38.88;;;10.30;99.90;;;;;;5027317;28;20536;-65
2022/01/01 01:12:20;;;;;;;71.78;38.67;;;10.30;99.90;;;;;;5026869;28;20049;-64
2022/01/01 01:14:46;;;;;;;70.03;41.45;;;10.30;99.90;;;;;;5030501;28;20049;-66
2022/01/01 01:17:12;;;;;;;84.20;40.75;;;10.20;99.90;;;;;;5030943;28;20053;-64
2022/01/01 01:19:39;;;;;;;69.07;38.33;;;10.20;99.90;;;;;;5021261;28;20156;-64
2022/01/01 01:22:05;;;;;;;73.32;37.50;;;10.20;99.90;;;;;;5032121;28;20414;-65
2022/01/01 01:24:32;;;;;;;73.25;37.47;;;10.10;99.90;;;;;;5031050;28;20472;-64
2022/01/01 01:27:02;;;;;;;81.78;48.42;;;10.10;99.90;;;;;;5019943;28;20049;-65
2022/01/01 01:29:29;;;;;;;83.85;46.53;;;10.10;99.90;;;;;;5032208;28;20080;-65
2022/01/01 01:31:55;;;;;;;86.13;53.03;;;10.10;99.90;;;;;;5022595;28;20041;-64
2022/01/01 01:34:21;;;;;;;113.22;67.07;;;10.10;99.90;;;;;;5028352;28;20045;-65
2022/01/01 01:36:47;;;;;;;103.65;55.72;;;10.00;99.90;;;;;;5032228;28;20057;-66
2022/01/01 01:39:13;;;;;;;65.97;34.50;;;10.00;99.90;;;;;;5031521;28;20053;-64
2022/01/01 01:41:42;;;;;;;72.25;35.92;;;10.00;99.90;;;;;;5031126;28;20044;-64
2022/01/01 01:44:29;;;;;;;76.43;41.17;;;10.00;99.90;;;;;;5030728;28;20092;-64
2022/01/01 01:46:56;;;;;;;86.63;46.08;;;9.90;99.90;;;;;;5013759;28;20434;-64
2022/01/01 01:49:22;;;;;;;82.90;44.25;;;9.90;99.90;;;;;;5032619;28;20467;-64
2022/01/01 01:51:48;;;;;;;71.10;39.00;;;9.90;99.90;;;;;;5031825;28;20144;-64
2022/01/01 01:54:16;;;;;;;67.63;30.08;;;9.90;99.90;;;;;;5025860;28;20053;-64
2022/01/01 01:56:45;;;;;;;57.47;22.75;;;9.90;99.90;;;;;;5030462;28;20057;-64
2022/01/01 01:59:11;;;;;;;54.60;22.42;;;9.80;99.90;;;;;;5030203;28;20100;-64
2022/01/01 02:01:37;;;;;;;55.13;22.95;;;9.80;99.90;;;;;;5029827;28;20487;-64
2022/01/01 02:04:03;;;;;;;87.75;43.58;;;9.80;99.90;;;;;;5010471;28;20060;-63
2022/01/01 02:06:29;;;;;;;79.78;35.67;;;9.80;99.90;;;;;;5030337;28;20053;-64
2022/01/01 02:08:55;;;;;;;71.55;28.65;;;9.90;99.90;;;;;;5031603;28;20049;-67
2022/01/01 02:11:22;;;;;;;63.25;25.35;;;9.90;99.90;;;;;;5029525;28;20129;-63
2022/01/01 02:14:03;;;;;;;66.50;28.83;;;9.90;99.90;;;;;;5029363;28;20049;-63
2022/01/01 02:16:37;;;;;;;61.00;26.48;;;9.90;99.90;;;;;;5024648;28;20103;-63
2022/01/01 02:19:03;;;;;;;70.40;28.50;;;9.90;99.90;;;;;;5012377;28;20063;-64
2022/01/01 02:21:29;;;;;;;74.57;29.63;;;9.90;99.90;;;;;;5031068;28;20041;-66
2022/01/01 02:23:59;;;;;;;75.57;32.00;;;9.90;99.90;;;;;;5025845;28;20049;-67
2022/01/01 02:26:34;;;;;;;80.97;33.10;;;10.00;99.90;;;;;;5018893;28;20438;-66
2022/01/01 02:29:02;;;;;;;95.85;36.15;;;10.00;99.90;;;;;;5029890;28;20052;-66
2022/01/01 02:31:30;;;;;;;91.60;37.35;;;10.00;99.90;;;;;;5029890;28;20472;-67
2022/01/01 02:34:05;;;;;;;84.43;38.58;;;10.00;99.90;;;;;;5030052;28;20085;-66
2022/01/01 02:36:40;;;;;;;89.60;41.25;;;10.10;99.90;;;;;;5031745;28;20049;-66
2022/01/01 02:39:21;;;;;;;94.57;43.83;;;10.10;99.90;;;;;;5045515;28;20088;-66
2022/01/01 02:41:50;;;;;;;106.40;47.42;;;10.10;99.90;;;;;;5030139;28;20045;-66
2022/01/01 02:44:15;;;;;;;107.22;47.67;;;10.10;99.90;;;;;;5030660;28;20250;-66
2022/01/01 02:46:41;;;;;;;110.40;52.22;;;10.10;99.90;;;;;;5046862;28;20055;-65
2022/01/01 02:49:07;;;;;;;114.93;48.10;;;10.20;99.90;;;;;;5031280;28;20482;-66
2022/01/01 02:51:33;;;;;;;86.60;40.97;;;10.20;99.90;;;;;;5013028;28;20447;-67
2022/01/01 02:53:59;;;;;;;92.13;39.55;;;10.20;99.90;;;;;;5031422;28;20045;-65
2022/01/01 02:56:25;;;;;;;104.18;40.20;;;10.20;99.90;;;;;;5029586;28;20041;-66
2022/01/01 02:58:52;;;;;;;75.90;33.97;;;10.20;99.90;;;;;;5030176;28;20100;-67
2022/01/01 03:01:18;;;;;;;84.80;35.35;;;10.30;99.90;;;;;;5030172;28;20125;-67
2022/01/01 03:03:44;;;;;;;85.32;35.92;;;10.30;99.90;;;;;;5031202;28;20053;-67
2022/01/01 03:06:10;;;;;;;102.85;48.67;;;10.30;99.90;;;;;;5029231;28;20172;-66
2022/01/01 03:08:37;;;;;;;82.25;36.95;;;10.30;99.90;;;;;;5029892;28;20084;-66
2022/01/01 03:11:03;;;;;;;81.90;33.78;;;10.30;99.90;;;;;;5012421;28;20052;-66
2022/01/01 03:13:29;;;;;;;70.55;30.65;;;10.30;99.90;;;;;;5029142;28;20045;-66
2022/01/01 03:15:55;;;;;;;82.30;29.25;;;10.30;99.90;;;;;;5029340;28;20068;-66
2022/01/01 03:18:21;;;;;;;74.80;29.02;;;10.20;99.90;;;;;;5029512;28;20136;-66
2022/01/01 03:20:47;;;;;;;67.30;27.88;;;10.20;99.90;;;;;;5029951;28;20052;-66
2022/01/01 03:23:13;;;;;;;78.00;28.25;;;10.30;99.90;;;;;;5030251;28;20344;-66
2022/01/01 03:25:39;;;;;;;70.30;27.88;;;10.20;99.90;;;;;;5030991;28;20110;-66
2022/01/01 03:28:05;;;;;;;80.15;33.13;;;10.20;99.90;;;;;;5029077;28;20516;-66
2022/01/01 03:30:32;;;;;;;71.32;27.05;;;10.20;99.90;;;;;;5029573;28;20111;-66
2022/01/01 03:32:58;;;;;;;75.65;31.55;;;10.20;99.90;;;;;;5029272;28;20255;-69
2022/01/01 03:35:23;;;;;;;64.03;28.35;;;10.30;99.90;;;;;;5030508;28;20206;-66
2022/01/01 03:37:49;;;;;;;71.80;32.65;;;10.20;99.90;;;;;;5029300;28;20180;-67
2022/01/01 03:40:15;;;;;;;69.13;27.25;;;10.20;99.90;;;;;;5028373;28;20046;-68
2022/01/01 03:42:41;;;;;;;72.00;32.45;;;10.30;99.90;;;;;;5030310;28;20037;-66
2022/01/01 03:45:08;;;;;;;73.28;31.35;;;10.30;99.90;;;;;;5030673;28;20057;-66
2022/01/01 03:47:34;;;;;;;86.00;38.03;;;10.30;99.90;;;;;;5028562;28;20045;-66
2022/01/01 03:50:00;;;;;;;79.03;32.85;;;10.30;99.90;;;;;;5029220;28;20115;-67
2022/01/01 03:52:26;;;;;;;72.18;30.30;;;10.30;99.90;;;;;;5028534;28;20045;-67
2022/01/01 03:54:52;;;;;;;72.35;29.95;;;10.30;99.90;;;;;;4996367;28;20128;-66
2022/01/01 03:57:20;;;;;;;77.88;29.42;;;10.30;99.90;;;;;;5028883;28;20095;-66
2022/01/01 03:59:47;;;;;;;73.47;30.70;;;10.30;99.90;;;;;;5013037;28;20096;-66
2022/01/01 04:02:13;;;;;;;72.85;28.35;;;10.30;99.90;;;;;;5028912;28;20072;-66
2022/01/01 04:04:39;;;;;;;70.72;28.08;;;10.30;99.90;;;;;;5030159;28;20449;-65
2022/01/01 04:07:05;;;;;;;70.00;26.20;;;10.30;99.90;;;;;;5029043;28;20061;-66
2022/01/01 04:09:30;;;;;;;68.32;26.35;;;10.30;99.90;;;;;;5028012;28;20509;-66
2022/01/01 04:11:56;;;;;;;69.57;26.60;;;10.30;99.90;;;;;;5028367;28;20060;-66
2022/01/01 04:14:22;;;;;;;68.22;26.13;;;10.30;99.90;;;;;;5028017;28;20045;-66
2022/01/01 04:16:50;;;;;;;69.20;25.52;;;10.30;99.90;;;;;;5030210;28;20128;-66
2022/01/01 04:19:15;;;;;;;68.70;25.25;;;10.30;99.90;;;;;;5028584;28;20065;-66
2022/01/01 04:21:41;;;;;;;60.42;26.20;;;10.30;99.90;;;;;;5012688;28;20460;-66
2022/01/01 04:24:07;;;;;;;63.95;25.67;;;10.20;99.90;;;;;;5012498;28;20056;-66
2022/01/01 04:26:33;;;;;;;71.35;26.00;;;10.20;99.90;;;;;;5011313;28;20233;-67
2022/01/01 04:28:59;;;;;;;64.80;26.77;;;10.20;99.90;;;;;;5029679;28;20128;-66
2022/01/01 04:31:25;;;;;;;71.55;27.25;;;10.20;99.90;;;;;;5028890;28;20172;-67
2022/01/01 04:33:51;;;;;;;62.35;26.38;;;10.20;99.90;;;;;;5029943;28;20095;-67
2022/01/01 04:36:17;;;;;;;70.25;27.35;;;10.20;99.90;;;;;;5028156;28;20538;-67
2022/01/01 04:38:44;;;;;;;62.97;27.80;;;10.30;99.90;;;;;;5029848;28;20045;-66
2022/01/01 04:41:12;;;;;;;62.92;25.40;;;10.30;99.90;;;;;;5027999;28;20058;-66
2022/01/01 04:43:40;;;;;;;55.13;24.33;;;10.30;99.90;;;;;;5028256;28;20699;-66
2022/01/01 04:46:07;;;;;;;61.05;23.00;;;10.30;99.90;;;;;;5029761;28;20111;-66
2022/01/01 04:48:36;;;;;;;63.88;23.58;;;10.30;99.90;;;;;;5029426;28;20050;-66
2022/01/01 04:51:12;;;;;;;64.25;24.98;;;10.30;99.90;;;;;;5027652;28;20057;-67
2022/01/01 04:53:44;;;;;;;64.90;25.50;;;10.30;99.90;;;;;;5028220;28;20136;-67
2022/01/01 04:56:10;;;;;;;63.15;25.58;;;10.20;99.90;;;;;;5028187;28;20058;-66
2022/01/01 04:58:36;;;;;;;60.13;25.30;;;10.30;99.90;;;;;;5009231;28;20107;-66
2022/01/01 05:01:03;;;;;;;58.50;25.27;;;10.20;99.90;;;;;;5028601;28;20045;-66
2022/01/01 05:03:28;;;;;;;60.53;26.50;;;10.20;99.90;;;;;;5028107;28;20107;-67
2022/01/01 05:05:54;;;;;;;59.92;26.67;;;10.30;99.90;;;;;;5029915;28;20136;-67
2022/01/01 05:08:20;;;;;;;56.28;24.70;;;10.30;99.90;;;;;;5029455;28;20057;-67
2022/01/01 05:10:46;;;;;;;65.82;25.98;;;10.20;99.90;;;;;;5011367;28;20128;-67
2022/01/01 05:13:13;;;;;;;61.33;27.17;;;10.30;99.90;;;;;;5029132;28;20183;-66
2022/01/01 05:15:39;;;;;;;76.30;29.45;;;10.30;99.90;;;;;;5029246;28;20119;-66
2022/01/01 05:18:04;;;;;;;71.63;30.38;;;10.30;99.90;;;;;;5027682;28;20494;-67
2022/01/01 05:20:30;;;;;;;62.80;29.67;;;10.30;99.90;;;;;;5027511;28;20053;-66
2022/01/01 05:22:56;;;;;;;75.43;31.58;;;10.30;99.90;;;;;;5028058;28;20054;-66
2022/01/01 05:25:21;;;;;;;72.10;32.83;;;10.30;99.90;;;;;;5028071;28;20116;-66
2022/01/01 05:27:47;;;;;;;72.85;34.17;;;10.30;99.90;;;;;;5028688;28;20553;-66
2022/01/01 05:30:13;;;;;;;78.68;36.30;;;10.30;99.90;;;;;;5012304;28;20083;-66
2022/01/01 05:32:39;;;;;;;76.80;34.92;;;10.30;99.90;;;;;;5031133;28;20077;-67
2022/01/01 05:35:05;;;;;;;79.88;37.75;;;10.30;99.90;;;;;;5033219;28;20053;-66
2022/01/01 05:37:31;;;;;;;83.07;39.72;;;10.30;99.90;;;;;;5032567;28;20553;-66
2022/01/01 05:39:57;;;;;;;85.25;40.08;;;10.30;99.90;;;;;;5030715;28;20053;-67
2022/01/01 05:42:23;;;;;;;81.32;40.70;;;10.30;99.90;;;;;;5033013;28;20056;-65
2022/01/01 05:44:48;;;;;;;89.35;47.20;;;10.40;99.90;;;;;;5014890;28;20089;-66
2022/01/01 05:47:14;;;;;;;96.65;43.28;;;10.40;99.90;;;;;;5032845;28;20065;-66
2022/01/01 05:49:40;;;;;;;83.38;42.67;;;10.40;99.90;;;;;;5029749;28;20045;-66
2022/01/01 05:52:06;;;;;;;90.32;42.80;;;10.40;99.90;;;;;;5014923;28;20099;-66
2022/01/01 05:54:32;;;;;;;88.07;43.13;;;10.40;99.90;;;;;;5030259;28;20072;-68
2022/01/01 05:56:59;;;;;;;94.32;42.28;;;10.30;99.90;;;;;;5032684;28;20428;-66
2022/01/01 05:59:25;;;;;;;91.60;44.50;;;10.30;99.90;;;;;;5032469;28;20502;-66
2022/01/01 06:01:51;;;;;;;85.88;41.28;;;10.30;99.90;;;;;;5030046;28;20044;-67
2022/01/01 06:04:16;;;;;;;87.18;41.50;;;10.30;99.90;;;;;;5047158;28;20092;-67
2022/01/01 06:06:42;;;;;;;85.30;42.60;;;10.30;99.90;;;;;;5030241;28;20092;-67
2022/01/01 06:09:08;;;;;;;67.88;33.70;;;10.30;99.90;;;;;;5031920;28;20060;-66
2022/01/01 06:11:34;;;;;;;72.63;34.92;;;10.30;99.90;;;;;;5029821;28;20499;-66
2022/01/01 06:13:59;;;;;;;62.65;27.90;;;10.30;99.90;;;;;;5046782;28;20084;-67
2022/01/01 06:16:25;;;;;;;58.33;25.10;;;10.30;99.90;;;;;;5030808;28;20052;-67
2022/01/01 06:18:51;;;;;;;62.80;25.45;;;10.30;99.90;;;;;;5030068;28;20823;-66
2022/01/01 06:21:16;;;;;;;57.55;25.73;;;10.30;99.90;;;;;;5029475;28;20049;-66
2022/01/01 06:23:42;;;;;;;57.92;24.02;;;10.30;99.90;;;;;;5013479;28;20497;-67
2022/01/01 06:26:08;;;;;;;60.83;25.83;;;10.20;99.90;;;;;;5027099;28;20537;-66
2022/01/01 06:28:34;;;;;;;69.10;27.23;;;10.20;99.90;;;;;;5031244;28;20046;-67
2022/01/01 06:30:59;;;;;;;65.65;23.80;;;10.20;99.90;;;;;;5031738;28;20041;-66
2022/01/01 06:33:25;;;;;;;63.72;24.15;;;10.20;99.90;;;;;;5031552;28;20057;-66
2022/01/01 06:35:51;;;;;;;71.38;26.85;;;10.20;99.90;;;;;;5013545;28;20806;-66
2022/01/01 06:38:16;;;;;;;67.13;23.70;;;9.80;99.90;;;;;;5031566;28;20132;-67
2022/01/01 06:40:43;;;;;;;78.03;27.38;;;10.20;99.90;;;;;;5030743;28;20057;-66
2022/01/01 06:43:11;;;;;;;68.50;25.48;;;10.20;99.90;;;;;;5031410;28;20057;-67
2022/01/01 06:45:38;;;;;;;75.00;27.63;;;10.20;99.90;;;;;;5030620;28;20048;-66
2022/01/01 06:48:04;;;;;;;66.43;25.88;;;10.20;99.90;;;;;;5031425;28;20057;-66
2022/01/01 06:50:31;;;;;;;73.50;26.25;;;10.20;99.90;;;;;;5031360;28;20056;-66
2022/01/01 06:52:57;;;;;;;69.05;23.90;;;10.20;99.90;;;;;;5030577;28;20509;-66
2022/01/01 06:55:23;;;;;;;73.32;25.30;;;10.20;99.90;;;;;;5030431;28;20092;-66
2022/01/01 06:57:48;;;;;;;65.13;24.75;;;10.20;99.90;;;;;;5029315;28;20088;-66
2022/01/01 07:00:15;;;;;;;63.75;24.48;;;10.20;99.90;;;;;;5031470;28;20053;-67
2022/01/01 07:02:46;;;;;;;75.82;25.88;;;10.30;99.90;;;;;;5029871;28;20107;-66
2022/01/01 07:05:12;;;;;;;67.68;24.00;;;10.30;99.90;;;;;;5013258;28;20530;-66
2022/01/01 07:07:38;;;;;;;53.15;21.42;;;10.30;99.90;;;;;;5029100;28;20502;-68
2022/01/01 07:10:05;;;;;;;63.50;21.52;;;10.30;99.90;;;;;;5031148;28;20175;-66
2022/01/01 07:12:31;;;;;;;68.72;23.00;;;10.30;99.90;;;;;;5030925;28;20053;-66
2022/01/01 07:14:57;;;;;;;69.57;24.40;;;10.30;99.90;;;;;;5030150;28;20041;-66
2022/01/01 07:17:22;;;;;;;58.75;22.60;;;10.40;99.90;;;;;;5030621;28;20069;-66
2022/01/01 07:19:48;;;;;;;64.63;23.65;;;10.40;99.90;;;;;;5029173;28;20057;-66
2022/01/01 07:22:14;;;;;;;63.45;22.60;;;10.30;99.90;;;;;;5029522;28;20064;-67
2022/01/01 07:24:40;;;;;;;63.88;23.65;;;10.40;99.90;;;;;;5030009;28;20110;-67
2022/01/01 07:27:06;;;;;;;57.05;22.75;;;10.30;99.90;;;;;;5029357;28;20096;-67
2022/01/01 07:29:32;;;;;;;61.85;22.25;;;10.40;99.90;;;;;;5030798;28;20056;-67
2022/01/01 07:31:57;;;;;;;56.40;19.50;;;10.40;99.90;;;;;;5028581;28;20108;-67
2022/01/01 07:34:23;;;;;;;51.35;19.85;;;10.40;99.90;;;;;;5030568;28;20056;-66
2022/01/01 07:36:49;;;;;;;54.03;19.15;;;10.40;99.90;;;;;;4994412;28;20375;-66
2022/01/01 07:39:15;;;;;;;51.03;19.38;;;10.40;99.90;;;;;;5029515;28;20422;-67
2022/01/01 07:41:42;;;;;;;52.53;19.95;;;10.50;99.90;;;;;;5029091;28;20473;-67
2022/01/01 07:44:09;;;;;;;58.20;19.45;;;10.40;99.90;;;;;;5030731;28;20056;-66
2022/01/01 07:46:35;;;;;;;48.70;20.25;;;10.50;99.90;;;;;;5028811;28;20056;-67
2022/01/01 07:49:00;;;;;;;57.80;19.90;;;10.50;99.90;;;;;;5027926;28;20580;-66
2022/01/01 07:51:26;;;;;;;54.92;19.55;;;10.50;99.90;;;;;;5030093;28;20046;-66
2022/01/01 07:53:52;;;;;;;55.97;20.98;;;10.50;99.90;;;;;;5029085;28;20053;-67
2022/01/01 07:56:18;;;;;;;66.60;22.38;;;10.50;99.90;;;;;;4996456;28;20473;-67
2022/01/01 07:58:44;;;;;;;56.25;20.35;;;10.60;99.90;;;;;;5011165;28;20041;-67
2022/01/01 08:01:09;;;;;;;57.22;20.80;;;10.60;99.90;;;;;;5029823;28;20045;-67
2022/01/01 08:03:35;;;;;;;55.85;22.30;;;10.60;99.90;;;;;;5028706;28;20052;-68
2022/01/01 08:06:01;;;;;;;54.38;20.48;;;10.60;99.90;;;;;;5029362;28;20525;-66
2022/01/01 08:08:26;;;;;;;52.10;21.42;;;10.60;99.90;;;;;;5011651;28;20075;-66
2022/01/01 08:10:52;;;;;;;53.80;21.48;;;10.70;99.90;;;;;;5011644;28;20057;-67
2022/01/01 08:13:23;;;;;;;62.53;21.60;;;10.70;99.90;;;;;;5028856;28;20494;-66
2022/01/01 08:15:54;;;;;;;58.80;22.55;;;10.70;99.90;;;;;;5027886;28;20100;-67
2022/01/01 08:18:21;;;;;;;60.65;22.42;;;10.70;99.90;;;;;;5027834;28;20447;-66
2022/01/01 08:20:47;;;;;;;55.15;23.00;;;10.70;99.90;;;;;;5029522;28;20073;-66
2022/01/01 08:23:13;;;;;;;52.88;22.00;;;10.80;99.90;;;;;;5012490;28;20056;-66
2022/01/01 08:25:39;;;;;;;54.50;23.88;;;10.80;99.90;;;;;;5029821;28;20053;-67
2022/01/01 08:28:06;;;;;;;68.80;24.42;;;10.80;99.90;;;;;;5027876;28;20061;-67
2022/01/01 08:30:33;;;;;;;62.65;24.75;;;10.80;99.90;;;;;;4995437;28;20451;-66
2022/01/01 08:33:02;;;;;;;56.00;25.15;;;10.90;99.90;;;;;;5044208;28;20106;-67
2022/01/01 08:35:30;;;;;;;59.55;25.02;;;10.90;99.90;;;;;;5029801;28;20057;-66
2022/01/01 08:37:56;;;;;;;66.80;25.08;;;10.90;99.90;;;;;;5027565;28;20132;-66
2022/01/01 08:40:24;;;;;;;60.92;24.58;;;10.90;99.90;;;;;;5027649;28;20402;-66
2022/01/01 08:42:49;;;;;;;67.95;25.77;;;10.90;99.90;;;;;;5028358;28;20069;-66
2022/01/01 08:45:15;;;;;;;66.05;26.23;;;11.00;99.90;;;;;;5012083;28;20045;-67
2022/01/01 08:47:41;;;;;;;65.00;24.25;;;11.00;99.90;;;;;;5028114;28;20049;-67
2022/01/01 08:50:07;;;;;;;63.55;25.20;;;11.00;99.90;;;;;;5027714;28;20049;-66
2022/01/01 08:52:33;;;;;;;65.95;26.45;;;11.00;99.90;;;;;;5029271;28;20121;-67
2022/01/01 08:54:59;;;;;;;56.70;24.40;;;11.10;99.90;;;;;;5029118;28;20189;-66
2022/01/01 08:57:25;;;;;;;64.28;24.80;;;11.10;99.90;;;;;;5028632;28;20441;-66
2022/01/01 08:59:52;;;;;;;55.03;23.33;;;11.10;99.90;;;;;;4993609;28;20046;-67
2022/01/01 09:02:17;;;;;;;64.28;26.15;;;11.20;99.90;;;;;;5028992;28;20049;-67
2022/01/01 09:04:43;;;;;;;55.92;25.13;;;11.20;99.90;;;;;;5029648;28;20045;-67
2022/01/01 09:07:09;;;;;;;59.80;27.40;;;11.20;99.90;;;;;;5031214;28;20191;-67
2022/01/01 09:09:35;;;;;;;57.95;25.45;;;11.20;99.90;;;;;;5033533;28;20060;-67
2022/01/01 09:12:00;;;;;;;55.47;23.23;;;11.30;99.90;;;;;;5032234;28;20044;-67
2022/01/01 09:14:26;;;;;;;59.15;23.67;;;11.30;99.90;;;;;;5032433;28;20045;-67
2022/01/01 09:16:52;;;;;;;48.67;22.33;;;11.30;99.90;;;;;;5033147;28;20049;-67
2022/01/01 09:19:19;;;;;;;55.85;24.80;;;11.40;99.90;;;;;;5032500;28;20049;-67
2022/01/01 09:21:45;;;;;;;54.53;25.25;;;11.40;99.90;;;;;;5030945;28;20049;-67
2022/01/01 09:24:11;;;;;;;49.60;22.42;;;11.50;99.90;;;;;;5047615;28;20056;-67
2022/01/01 09:26:37;;;;;;;44.90;22.13;;;11.50;99.90;;;;;;5015444;28;20053;-66
2022/01/01 09:29:04;;;;;;;45.65;20.67;;;11.50;99.90;;;;;;5031802;28;20057;-67
2022/01/01 09:31:31;;;;;;;43.33;23.00;;;11.60;99.90;;;;;;5032785;28;20057;-66
2022/01/01 09:33:57;;;;;;;41.80;22.20;;;11.60;99.90;;;;;;5014538;28;20107;-66
2022/01/01 09:36:22;;;;;;;40.92;22.35;;;11.60;99.90;;;;;;5033148;28;20426;-67
2022/01/01 09:38:48;;;;;;;47.17;22.52;;;11.70;99.90;;;;;;5030444;28;20042;-66
2022/01/01 09:41:15;;;;;;;49.63;22.58;;;11.70;99.90;;;;;;5030682;28;20069;-66
2022/01/01 09:43:41;;;;;;;45.08;22.55;;;11.70;99.90;;;;;;5029643;28;20053;-66
2022/01/01 09:46:12;;;;;;;36.05;17.90;;;11.70;99.90;;;;;;5030211;28;20129;-66
2022/01/01 09:48:38;;;;;;;42.13;20.88;;;11.70;99.90;;;;;;5031567;28;20045;-66
2022/01/01 09:51:04;;;;;;;46.50;21.73;;;11.80;99.90;;;;;;5031562;28;20286;-66
2022/01/01 09:53:31;;;;;;;36.53;20.17;;;11.80;99.90;;;;;;5014692;28;20083;-66
2022/01/01 09:55:59;;;;;;;37.97;19.70;;;11.80;99.90;;;;;;5029417;28;20477;-67
2022/01/01 09:58:26;;;;;;;35.55;18.95;;;11.90;99.90;;;;;;5013189;28;20107;-67
2022/01/01 10:00:53;;;;;;;41.67;19.05;;;11.90;99.90;;;;;;5029936;28;20053;-66
2022/01/01 10:03:44;;;;;;;36.95;16.73;;;11.90;99.90;;;;;;5029834;28;20081;-67
2022/01/01 10:06:15;;;;;;;34.97;16.83;;;12.00;99.90;;;;;;5028154;28;20046;-66
2022/01/01 10:08:56;;;;;;;29.15;15.32;;;12.00;99.90;;;;;;5045237;28;20517;-66
2022/01/01 10:11:22;;;;;;;26.85;13.02;;;12.10;99.90;;;;;;5030097;28;20045;-67
2022/01/01 10:13:48;;;;;;;32.10;15.68;;;12.10;99.90;;;;;;5030364;28;20513;-67
2022/01/01 10:16:15;;;;;;;35.05;15.43;;;11.80;99.90;;;;;;5028631;28;20079;-66
2022/01/01 10:18:43;;;;;;;24.52;14.48;;;12.10;99.90;;;;;;5031021;28;20046;-66
2022/01/01 10:21:12;;;;;;;28.55;14.23;;;12.10;99.90;;;;;;5030036;28;20140;-65
2022/01/01 10:23:41;;;;;;;28.50;14.07;;;12.10;99.90;;;;;;5031305;28;20057;-65
2022/01/01 10:29:05;;;;;;;28.33;13.13;;;12.20;99.90;;;;;;5030753;28;20143;-64
2022/01/01 10:31:33;;;;;;;27.75;12.15;;;12.20;99.90;;;;;;5030680;28;20038;-64
2022/01/01 10:33:59;;;;;;;22.52;11.18;;;12.20;99.90;;;;;;5013449;28;20467;-64
2022/01/01 10:36:27;;;;;;;25.95;12.30;;;12.20;99.90;;;;;;5016901;28;20445;-65
2022/01/01 10:39:05;;;;;;;28.65;11.18;;;12.20;99.90;;;;;;5026271;28;20041;-65
2022/01/01 10:41:44;;;;;;;20.40;10.32;;;12.20;99.90;;;;;;5028851;28;20057;-65
2022/01/01 10:44:10;;;;;;;23.65;11.70;;;12.20;99.90;;;;;;5027102;28;20049;-65
2022/01/01 10:46:37;;;;;;;25.67;10.65;;;12.20;99.90;;;;;;5026808;28;20059;-65
2022/01/01 10:49:32;;;;;;;24.52;11.77;;;12.20;99.90;;;;;;5026996;28;20640;-65
2022/01/01 10:52:13;;;;;;;29.40;11.80;;;12.20;99.90;;;;;;5028275;28;20069;-66
2022/01/01 10:54:57;;;;;;;25.33;12.25;;;12.30;99.90;;;;;;5027662;28;20056;-65
2022/01/01 10:57:27;;;;;;;18.30;9.10;;;12.20;99.90;;;;;;5015808;28;20099;-65
2022/01/01 11:00:04;;;;;;;24.42;11.65;;;12.30;99.90;;;;;;5028384;28;20096;-66
2022/01/01 11:02:35;;;;;;;27.15;12.38;;;12.30;99.90;;;;;;5028752;28;20060;-66
2022/01/01 11:05:03;;;;;;;22.63;11.95;;;12.30;99.90;;;;;;5027300;28;20041;-64
2022/01/01 11:07:30;;;;;;;23.70;12.05;;;12.30;99.90;;;;;;4995155;28;20053;-64
2022/01/01 11:09:57;;;;;;;22.77;11.82;;;12.30;99.90;;;;;;5027244;28;20150;-65
2022/01/01 11:12:28;;;;;;;22.38;11.43;;;12.30;99.90;;;;;;5025629;28;20056;-65
2022/01/01 11:14:57;;;;;;;21.88;12.15;;;12.30;99.90;;;;;;5028030;28;20102;-66
2022/01/01 11:17:23;;;;;;;18.58;10.05;;;12.30;99.90;;;;;;5027142;28;20049;-65
2022/01/01 11:19:49;;;;;;;22.45;12.05;;;12.30;99.90;;;;;;5027077;28;20482;-65
2022/01/01 11:22:16;;;;;;;19.48;10.02;;;12.30;99.90;;;;;;5010546;28;20082;-65
2022/01/01 11:24:42;;;;;;;20.40;10.07;;;12.30;99.90;;;;;;5027691;28;20049;-65
2022/01/01 11:27:09;;;;;;;21.38;11.60;;;12.30;99.90;;;;;;5027639;28;20122;-66
2022/01/01 11:29:38;;;;;;;20.58;11.30;;;12.30;99.90;;;;;;5026015;28;20071;-66
2022/01/01 11:32:07;;;;;;;25.35;11.48;;;12.30;99.90;;;;;;5028470;28;20038;-65
2022/01/01 11:34:38;;;;;;;26.80;11.57;;;12.30;99.90;;;;;;5028077;28;20441;-65
2022/01/01 11:37:07;;;;;;;21.77;10.10;;;12.30;99.90;;;;;;5027094;28;20056;-65
2022/01/01 11:39:32;;;;;;;21.45;10.05;;;12.30;99.90;;;;;;5026101;28;20128;-66
2022/01/01 11:42:15;;;;;;;20.38;10.45;;;12.40;99.90;;;;;;5027914;28;20128;-66
2022/01/01 11:44:52;;;;;;;17.85;8.77;;;12.40;99.90;;;;;;5027531;28;20054;-65
2022/01/01 11:47:23;;;;;;;21.48;9.15;;;12.40;99.90;;;;;;5010522;28;20053;-66
2022/01/01 11:49:52;;;;;;;17.63;8.25;;;12.40;99.90;;;;;;5028528;28;20049;-67
2022/01/01 11:52:38;;;;;;;16.98;8.88;;;12.40;99.90;;;;;;5026104;28;20075;-65
2022/01/01 11:55:16;;;;;;;18.63;9.43;;;12.40;99.90;;;;;;5009234;28;20046;-66
2022/01/01 11:57:59;;;;;;;19.38;11.05;;;12.40;99.90;;;;;;5019489;28;20490;-64
2022/01/01 12:00:25;;;;;;;22.98;9.98;;;12.50;99.90;;;;;;5027852;28;20060;-65
2022/01/01 12:03:10;;;;;;;19.80;9.15;;;12.50;99.90;;;;;;5010433;28;20045;-64
2022/01/01 12:05:35;;;;;;;;;;;12.50;99.90;;;;;;5028446;28;20060;-65
2022/01/01 12:08:01;;;;;;;17.17;7.45;;;12.50;99.90;;;;;;5028017;28;20269;-64
2022/01/01 12:10:29;;;;;;;14.07;7.00;;;12.50;99.90;;;;;;5028023;28;20049;-65
2022/01/01 12:12:58;;;;;;;18.13;8.48;;;12.50;99.90;;;;;;5026347;28;20426;-66
2022/01/01 12:15:24;;;;;;;15.68;7.25;;;12.50;99.90;;;;;;5027425;28;20050;-67
2022/01/01 12:17:55;;;;;;;15.60;8.77;;;12.50;99.90;;;;;;5026233;28;20371;-65
2022/01/01 12:20:25;;;;;;;11.73;6.25;;;12.50;99.90;;;;;;5025646;28;20045;-64
2022/01/01 12:22:51;;;;;;;16.88;6.95;;;12.60;99.90;;;;;;5026314;28;20072;-65
2022/01/01 12:25:23;;;;;;;16.98;6.95;;;12.60;99.90;;;;;;5026732;28;20596;-65
2022/01/01 12:27:52;;;;;;;17.55;7.13;;;12.60;99.90;;;;;;5026223;28;20111;-64
2022/01/01 12:30:40;;;;;;;12.63;5.97;;;12.60;99.90;;;;;;5027612;28;20405;-65
2022/01/01 12:33:08;;;;;;;14.85;6.43;;;12.60;99.90;;;;;;5027591;28;20042;-64